Norsul Tubarao — 3FJV6 — position and weather

sailwx.info

Track history (hours):
 
Tides and Currents Weather Stations Pressure Air Temp Water Temp Dewpoint Dewpoint Depression Visibility Wind Speed Wind Dir Waves Ship Positions

Norsul Tubarao

Last reported at 2018-Feb-27 01:17 UTC. Time now 2018-Apr-23 09:50 UTC.
Position N 17°26' W 063°01'.
Warning: this ship's position is 55 days out of date.

Length 175 m; draft 7.3 m.

Type: Cargo ship. MMSI: 373182000.

Date/timePositionNaut miles runAvg speedWind from/ knotsBaromVisibWave heightAir tempDewpointWater temp
2018-Feb-27 01:17N 17°26' W 063°01'3 7.0
2018-Feb-27 00:53N 17°29' W 063°01'0 0.7
2018-Feb-27 00:28N 17°29' W 063°01'0 0.2
2018-Feb-26 23:58N 17°29' W 063°01'0 0.0
2018-Feb-26 23:19N 17°29' W 063°01'0 0.0
2018-Feb-26 22:46N 17°29' W 063°01'0 0.0
2018-Feb-26 22:16N 17°29' W 063°01'0 0.0
2018-Feb-26 21:52N 17°29' W 063°01'0 0.0
2018-Feb-26 21:22N 17°29' W 063°01'0 0.1
2018-Feb-26 20:52N 17°29' W 063°01'0 0.0
2018-Feb-26 20:22N 17°29' W 063°01'0 0.0
2018-Feb-26 19:49N 17°29' W 063°01'0 0.1
2018-Feb-26 19:22N 17°29' W 063°01'0 0.0
2018-Feb-26 18:55N 17°29' W 063°01'0 0.0
2018-Feb-26 18:22N 17°29' W 063°01'0 0.0
2018-Feb-26 17:22N 17°29' W 063°01'0 0.1
2018-Feb-26 16:58N 17°29' W 063°01'0 0.0
2018-Feb-26 16:22N 17°29' W 063°01'0 0.0
2018-Feb-26 15:55N 17°29' W 063°01'0 0.0
2018-Feb-26 15:28N 17°29' W 063°01'0 0.1
2018-Feb-26 14:58N 17°29' W 063°01'0 0.1
2018-Feb-26 14:28N 17°29' W 063°01'0 0.1
2018-Feb-26 13:58N 17°29' W 063°01'0 0.1
2018-Feb-26 13:28N 17°29' W 063°01'0 0.0
2018-Feb-26 12:58N 17°29' W 063°01'0 0.0
2018-Feb-26 12:16N 17°29' W 063°01'0 0.0
2018-Feb-26 11:46N 17°29' W 063°01'0 0.0
2018-Feb-26 11:28N 17°29' W 063°01'0 0.0
2018-Feb-26 10:58N 17°29' W 063°01'0 0.0
2018-Feb-26 10:28N 17°29' W 063°01'0 0.0
2018-Feb-26 09:46N 17°29' W 063°01'0 0.0
2018-Feb-26 09:19N 17°29' W 063°01'0 0.0
2018-Feb-26 08:22N 17°29' W 063°01'0 0.0
2018-Feb-26 07:52N 17°29' W 063°01'0 0.0
2018-Feb-26 07:22N 17°29' W 063°01'0 0.0
2018-Feb-26 06:37N 17°29' W 063°01'0 0.1
2018-Feb-26 06:22N 17°29' W 063°01'0 0.1
2018-Feb-26 05:49N 17°29' W 063°01'0 0.1
2018-Feb-26 05:25N 17°29' W 063°01'0 0.0
2018-Feb-26 04:52N 17°29' W 063°01'0 0.0
2018-Feb-26 04:25N 17°29' W 063°01'0 0.0
2018-Feb-26 03:55N 17°29' W 063°01'0 0.0
2018-Feb-26 03:25N 17°29' W 063°01'0 0.1
2018-Feb-26 02:58N 17°29' W 063°01'0 0.1
2018-Feb-26 02:25N 17°29' W 063°01'0 0.1
2018-Feb-26 01:55N 17°29' W 063°01'0 0.0
2018-Feb-26 01:13N 17°29' W 063°01'0 0.1
2018-Feb-26 00:43N 17°29' W 063°01'0 0.0
2018-Feb-26 00:28N 17°29' W 063°01'0 0.0
2018-Feb-25 23:46N 17°29' W 063°01'0 0.1
2018-Feb-25 23:28N 17°29' W 063°01'0 0.2
2018-Feb-25 22:43N 17°29' W 063°01'0 0.1
2018-Feb-25 22:28N 17°29' W 063°01'0 0.2
2018-Feb-25 21:49N 17°29' W 063°01'0 0.0
2018-Feb-25 21:16N 17°29' W 063°01'0 0.0
2018-Feb-25 20:58N 17°29' W 063°01'0 0.2
2018-Feb-25 20:19N 17°29' W 063°01'0 0.1
2018-Feb-25 19:57N 17°28' W 063°01'1 2.1
2018-Feb-25 19:27N 17°29' W 063°02'0 0.6
2018-Feb-25 18:51N 17°29' W 063°02'3 4.6
2018-Feb-25 18:08N 17°32' W 063°04'1 5.0
2018-Feb-25 17:57N 17°32' W 063°05'3 6.6
2018-Feb-25 17:28N 17°35' W 063°06'5 8.9
2018-Feb-25 16:54N 17°39' W 063°09'4 8.9
2018-Feb-25 16:27N 17°42' W 063°12'4 9.1
2018-Feb-25 15:59N 17°46' W 063°14'6 9.3
2018-Feb-25 15:22N 17°51' W 063°17'3 9.0
2018-Feb-25 15:00N 17°54' W 063°18'5 9.4
2018-Feb-25 14:26N 17°59' W 063°21'4 9.5
2018-Feb-25 14:00N 18°02' W 063°23'5 9.3
2018-Feb-25 13:26N 18°07' W 063°26'4 9.2
2018-Feb-25 13:00N 18°11' W 063°28'4 8.9
2018-Feb-25 12:29N 18°15' W 063°30'5 8.8
2018-Feb-25 11:57N 18°19' W 063°33'4 8.8
2018-Feb-25 11:29N 18°22' W 063°35'4 8.9
2018-Feb-25 10:59N 18°26' W 063°37'  
Track history (hours):
 
Tides and Currents Weather Stations Pressure Air Temp Water Temp Dewpoint Dewpoint Depression Visibility Wind Speed Wind Dir Waves Ship Positions

Norsul Tubarao

Last reported at 2018-Feb-27 01:17 UTC. Time now 2018-Apr-23 09:50 UTC.
Position N 17°26' W 063°01'.
Warning: this ship's position is 55 days out of date.

Length 175 m; draft 7.3 m.

Type: Cargo ship. MMSI: 373182000.

Date/timePositionNaut miles runAvg speedWind from/ knotsBaromVisibWave heightAir tempDewpointWater temp
2018-Feb-27 01:17N 17°26' W 063°01'3 7.0
2018-Feb-27 00:53N 17°29' W 063°01'0 0.7
2018-Feb-27 00:28N 17°29' W 063°01'0 0.2
2018-Feb-26 23:58N 17°29' W 063°01'0 0.0
2018-Feb-26 23:19N 17°29' W 063°01'0 0.0
2018-Feb-26 22:46N 17°29' W 063°01'0 0.0
2018-Feb-26 22:16N 17°29' W 063°01'0 0.0
2018-Feb-26 21:52N 17°29' W 063°01'0 0.0
2018-Feb-26 21:22N 17°29' W 063°01'0 0.1
2018-Feb-26 20:52N 17°29' W 063°01'0 0.0
2018-Feb-26 20:22N 17°29' W 063°01'0 0.0
2018-Feb-26 19:49N 17°29' W 063°01'0 0.1
2018-Feb-26 19:22N 17°29' W 063°01'0 0.0
2018-Feb-26 18:55N 17°29' W 063°01'0 0.0
2018-Feb-26 18:22N 17°29' W 063°01'0 0.0
2018-Feb-26 17:22N 17°29' W 063°01'0 0.1
2018-Feb-26 16:58N 17°29' W 063°01'0 0.0
2018-Feb-26 16:22N 17°29' W 063°01'0 0.0
2018-Feb-26 15:55N 17°29' W 063°01'0 0.0
2018-Feb-26 15:28N 17°29' W 063°01'0 0.1
2018-Feb-26 14:58N 17°29' W 063°01'0 0.1
2018-Feb-26 14:28N 17°29' W 063°01'0 0.1
2018-Feb-26 13:58N 17°29' W 063°01'0 0.1
2018-Feb-26 13:28N 17°29' W 063°01'0 0.0
2018-Feb-26 12:58N 17°29' W 063°01'0 0.0
2018-Feb-26 12:16N 17°29' W 063°01'0 0.0
2018-Feb-26 11:46N 17°29' W 063°01'0 0.0
2018-Feb-26 11:28N 17°29' W 063°01'0 0.0
2018-Feb-26 10:58N 17°29' W 063°01'0 0.0
2018-Feb-26 10:28N 17°29' W 063°01'0 0.0
2018-Feb-26 09:46N 17°29' W 063°01'0 0.0
2018-Feb-26 09:19N 17°29' W 063°01'0 0.0
2018-Feb-26 08:22N 17°29' W 063°01'0 0.0
2018-Feb-26 07:52N 17°29' W 063°01'0 0.0
2018-Feb-26 07:22N 17°29' W 063°01'0 0.0
2018-Feb-26 06:37N 17°29' W 063°01'0 0.1
2018-Feb-26 06:22N 17°29' W 063°01'0 0.1
2018-Feb-26 05:49N 17°29' W 063°01'0 0.1
2018-Feb-26 05:25N 17°29' W 063°01'0 0.0
2018-Feb-26 04:52N 17°29' W 063°01'0 0.0
2018-Feb-26 04:25N 17°29' W 063°01'0 0.0
2018-Feb-26 03:55N 17°29' W 063°01'0 0.0
2018-Feb-26 03:25N 17°29' W 063°01'0 0.1
2018-Feb-26 02:58N 17°29' W 063°01'0 0.1
2018-Feb-26 02:25N 17°29' W 063°01'0 0.1
2018-Feb-26 01:55N 17°29' W 063°01'0 0.0
2018-Feb-26 01:13N 17°29' W 063°01'0 0.1
2018-Feb-26 00:43N 17°29' W 063°01'0 0.0
2018-Feb-26 00:28N 17°29' W 063°01'0 0.0
2018-Feb-25 23:46N 17°29' W 063°01'0 0.1
2018-Feb-25 23:28N 17°29' W 063°01'0 0.2
2018-Feb-25 22:43N 17°29' W 063°01'0 0.1
2018-Feb-25 22:28N 17°29' W 063°01'0 0.2
2018-Feb-25 21:49N 17°29' W 063°01'0 0.0
2018-Feb-25 21:16N 17°29' W 063°01'0 0.0
2018-Feb-25 20:58N 17°29' W 063°01'0 0.2
2018-Feb-25 20:19N 17°29' W 063°01'0 0.1
2018-Feb-25 19:57N 17°28' W 063°01'1 2.1
2018-Feb-25 19:27N 17°29' W 063°02'0 0.6
2018-Feb-25 18:51N 17°29' W 063°02'3 4.6
2018-Feb-25 18:08N 17°32' W 063°04'1 5.0
2018-Feb-25 17:57N 17°32' W 063°05'3 6.6
2018-Feb-25 17:28N 17°35' W 063°06'5 8.9
2018-Feb-25 16:54N 17°39' W 063°09'4 8.9
2018-Feb-25 16:27N 17°42' W 063°12'4 9.1
2018-Feb-25 15:59N 17°46' W 063°14'6 9.3
2018-Feb-25 15:22N 17°51' W 063°17'3 9.0
2018-Feb-25 15:00N 17°54' W 063°18'5 9.4
2018-Feb-25 14:26N 17°59' W 063°21'4 9.5
2018-Feb-25 14:00N 18°02' W 063°23'5 9.3
2018-Feb-25 13:26N 18°07' W 063°26'4 9.2
2018-Feb-25 13:00N 18°11' W 063°28'4 8.9
2018-Feb-25 12:29N 18°15' W 063°30'5 8.8
2018-Feb-25 11:57N 18°19' W 063°33'4 8.8
2018-Feb-25 11:29N 18°22' W 063°35'4 8.9
2018-Feb-25 10:59N 18°26' W 063°37'  

Dump ship's entire track history